sensor_id;sensor_type;location;lat;lon;timestamp;temperature;humidity
32877;DHT22;19226;51.600;8.034;2022-08-01T00:01:42;21.00;99.90
32877;DHT22;19226;51.600;8.034;2022-08-01T00:04:11;21.00;99.90
32877;DHT22;19226;51.600;8.034;2022-08-01T00:06:37;21.00;99.90
32877;DHT22;19226;51.600;8.034;2022-08-01T00:09:05;21.00;99.90
32877;DHT22;19226;51.600;8.034;2022-08-01T00:11:32;21.00;99.90
32877;DHT22;19226;51.600;8.034;2022-08-01T00:14:00;20.90;99.90
32877;DHT22;19226;51.600;8.034;2022-08-01T00:16:26;20.90;99.90
32877;DHT22;19226;51.600;8.034;2022-08-01T00:18:54;20.90;99.90
32877;DHT22;19226;51.600;8.034;2022-08-01T00:21:21;21.00;99.90
32877;DHT22;19226;51.600;8.034;2022-08-01T00:23:47;21.00;99.90
32877;DHT22;19226;51.600;8.034;2022-08-01T00:26:14;21.00;99.90
32877;DHT22;19226;51.600;8.034;2022-08-01T00:28:41;21.00;99.90
32877;DHT22;19226;51.600;8.034;2022-08-01T00:31:07;21.00;99.90
32877;DHT22;19226;51.600;8.034;2022-08-01T00:33:33;20.90;99.90
32877;DHT22;19226;51.600;8.034;2022-08-01T00:36:02;21.00;99.90
32877;DHT22;19226;51.600;8.034;2022-08-01T00:38:28;21.00;99.90
32877;DHT22;19226;51.600;8.034;2022-08-01T00:40:54;21.00;99.90
32877;DHT22;19226;51.600;8.034;2022-08-01T00:43:21;21.00;99.90
32877;DHT22;19226;51.600;8.034;2022-08-01T00:45:47;21.00;99.90
32877;DHT22;19226;51.600;8.034;2022-08-01T00:48:13;21.00;99.90
32877;DHT22;19226;51.600;8.034;2022-08-01T00:50:42;21.00;99.90
32877;DHT22;19226;51.600;8.034;2022-08-01T00:53:08;21.00;99.90
32877;DHT22;19226;51.600;8.034;2022-08-01T00:55:37;21.00;99.90
32877;DHT22;19226;51.600;8.034;2022-08-01T00:58:03;20.90;99.90
32877;DHT22;19226;51.600;8.034;2022-08-01T01:00:34;20.90;99.90
32877;DHT22;19226;51.600;8.034;2022-08-01T01:03:01;20.90;99.90
32877;DHT22;19226;51.600;8.034;2022-08-01T01:05:27;20.90;99.90
32877;DHT22;19226;51.600;8.034;2022-08-01T01:08:01;20.90;99.90
32877;DHT22;19226;51.600;8.034;2022-08-01T01:10:45;20.90;99.90
32877;DHT22;19226;51.600;8.034;2022-08-01T01:13:38;20.90;99.90
32877;DHT22;19226;51.600;8.034;2022-08-01T01:16:18;20.90;99.90
32877;DHT22;19226;51.600;8.034;2022-08-01T01:18:56;20.90;99.90
32877;DHT22;19226;51.600;8.034;2022-08-01T01:27:24;20.90;99.90
32877;DHT22;19226;51.600;8.034;2022-08-01T01:29:55;20.90;99.90
32877;DHT22;19226;51.600;8.034;2022-08-01T01:32:33;20.90;99.90
32877;DHT22;19226;51.600;8.034;2022-08-01T01:35:07;20.90;99.90
32877;DHT22;19226;51.600;8.034;2022-08-01T01:37:35;20.90;99.90
32877;DHT22;19226;51.600;8.034;2022-08-01T01:40:04;20.80;99.90
32877;DHT22;19226;51.600;8.034;2022-08-01T01:42:32;20.80;99.90
32877;DHT22;19226;51.600;8.034;2022-08-01T01:45:00;20.80;99.90
32877;DHT22;19226;51.600;8.034;2022-08-01T01:47:28;20.80;99.90
32877;DHT22;19226;51.600;8.034;2022-08-01T01:49:55;20.90;99.90
32877;DHT22;19226;51.600;8.034;2022-08-01T01:52:23;20.90;99.90
32877;DHT22;19226;51.600;8.034;2022-08-01T01:54:51;20.90;99.90
32877;DHT22;19226;51.600;8.034;2022-08-01T01:57:20;20.90;99.90
32877;DHT22;19226;51.600;8.034;2022-08-01T01:59:47;20.80;99.90
32877;DHT22;19226;51.600;8.034;2022-08-01T02:02:16;20.80;99.90
32877;DHT22;19226;51.600;8.034;2022-08-01T02:04:44;20.80;99.90
32877;DHT22;19226;51.600;8.034;2022-08-01T02:07:16;20.90;99.90
32877;DHT22;19226;51.600;8.034;2022-08-01T02:09:44;20.90;99.90
32877;DHT22;19226;51.600;8.034;2022-08-01T02:12:13;20.90;99.90
32877;DHT22;19226;51.600;8.034;2022-08-01T02:14:42;20.80;99.90
32877;DHT22;19226;51.600;8.034;2022-08-01T02:17:12;20.80;99.90
32877;DHT22;19226;51.600;8.034;2022-08-01T02:19:44;20.90;99.90
32877;DHT22;19226;51.600;8.034;2022-08-01T02:22:23;20.90;99.90
32877;DHT22;19226;51.600;8.034;2022-08-01T02:27:35;20.80;99.90
32877;DHT22;19226;51.600;8.034;2022-08-01T02:30:06;20.80;99.90
32877;DHT22;19226;51.600;8.034;2022-08-01T02:32:43;20.70;99.90
32877;DHT22;19226;51.600;8.034;2022-08-01T02:35:13;20.70;99.90
32877;DHT22;19226;51.600;8.034;2022-08-01T02:37:57;20.70;99.90
32877;DHT22;19226;51.600;8.034;2022-08-01T02:40:31;20.70;99.90
32877;DHT22;19226;51.600;8.034;2022-08-01T02:43:00;20.60;99.90
32877;DHT22;19226;51.600;8.034;2022-08-01T02:45:28;20.60;99.90
32877;DHT22;19226;51.600;8.034;2022-08-01T02:48:08;20.60;99.90
32877;DHT22;19226;51.600;8.034;2022-08-01T02:50:36;20.60;99.90
32877;DHT22;19226;51.600;8.034;2022-08-01T02:53:04;20.60;99.90
32877;DHT22;19226;51.600;8.034;2022-08-01T02:55:32;20.50;99.90
32877;DHT22;19226;51.600;8.034;2022-08-01T02:58:01;20.40;99.90
32877;DHT22;19226;51.600;8.034;2022-08-01T03:00:30;20.30;99.90
32877;DHT22;19226;51.600;8.034;2022-08-01T03:02:56;20.20;99.90
32877;DHT22;19226;51.600;8.034;2022-08-01T03:05:43;20.20;99.90
32877;DHT22;19226;51.600;8.034;2022-08-01T03:08:14;20.10;99.90
32877;DHT22;19226;51.600;8.034;2022-08-01T03:10:59;20.10;99.90
32877;DHT22;19226;51.600;8.034;2022-08-01T03:13:30;20.00;99.90
32877;DHT22;19226;51.600;8.034;2022-08-01T03:15:58;20.00;99.90
32877;DHT22;19226;51.600;8.034;2022-08-01T03:18:26;20.00;99.90
32877;DHT22;19226;51.600;8.034;2022-08-01T03:20:56;20.10;99.90
32877;DHT22;19226;51.600;8.034;2022-08-01T03:23:25;20.10;99.90
32877;DHT22;19226;51.600;8.034;2022-08-01T03:25:52;20.10;99.90
32877;DHT22;19226;51.600;8.034;2022-08-01T03:28:22;20.20;99.90
32877;DHT22;19226;51.600;8.034;2022-08-01T03:30:49;20.10;99.90
32877;DHT22;19226;51.600;8.034;2022-08-01T03:33:20;20.10;99.90
32877;DHT22;19226;51.600;8.034;2022-08-01T03:35:48;20.00;99.90
32877;DHT22;19226;51.600;8.034;2022-08-01T03:38:19;20.00;99.90
32877;DHT22;19226;51.600;8.034;2022-08-01T03:40:56;20.10;99.90
32877;DHT22;19226;51.600;8.034;2022-08-01T03:46:28;20.20;99.90
32877;DHT22;19226;51.600;8.034;2022-08-01T03:48:58;20.30;99.90
32877;DHT22;19226;51.600;8.034;2022-08-01T03:51:29;20.30;99.90
32877;DHT22;19226;51.600;8.034;2022-08-01T03:53:57;20.20;99.90
32877;DHT22;19226;51.600;8.034;2022-08-01T03:56:29;20.30;99.90
32877;DHT22;19226;51.600;8.034;2022-08-01T03:58:59;20.30;99.90
32877;DHT22;19226;51.600;8.034;2022-08-01T04:01:28;20.30;99.90
32877;DHT22;19226;51.600;8.034;2022-08-01T04:03:55;20.30;99.90
32877;DHT22;19226;51.600;8.034;2022-08-01T04:06:21;20.30;99.90
32877;DHT22;19226;51.600;8.034;2022-08-01T04:08:48;20.30;99.90
32877;DHT22;19226;51.600;8.034;2022-08-01T04:11:24;20.30;99.90
32877;DHT22;19226;51.600;8.034;2022-08-01T04:13:52;20.30;99.90
32877;DHT22;19226;51.600;8.034;2022-08-01T04:16:22;20.30;99.90
32877;DHT22;19226;51.600;8.034;2022-08-01T04:18:48;20.30;99.90
32877;DHT22;19226;51.600;8.034;2022-08-01T04:21:22;20.30;99.90
32877;DHT22;19226;51.600;8.034;2022-08-01T04:23:49;20.30;99.90
32877;DHT22;19226;51.600;8.034;2022-08-01T04:26:18;20.30;99.90
32877;DHT22;19226;51.600;8.034;2022-08-01T04:28:48;20.40;99.90
32877;DHT22;19226;51.600;8.034;2022-08-01T04:31:16;20.40;99.90
32877;DHT22;19226;51.600;8.034;2022-08-01T04:33:47;20.40;99.90
32877;DHT22;19226;51.600;8.034;2022-08-01T04:36:15;20.50;99.90
32877;DHT22;19226;51.600;8.034;2022-08-01T04:38:45;20.40;99.90
32877;DHT22;19226;51.600;8.034;2022-08-01T04:41:15;20.40;99.90
32877;DHT22;19226;51.600;8.034;2022-08-01T04:43:42;20.40;99.90
32877;DHT22;19226;51.600;8.034;2022-08-01T04:46:13;20.40;99.90
32877;DHT22;19226;51.600;8.034;2022-08-01T04:48:40;20.40;99.90
32877;DHT22;19226;51.600;8.034;2022-08-01T04:51:25;20.40;99.90
32877;DHT22;19226;51.600;8.034;2022-08-01T04:53:51;20.30;99.90
32877;DHT22;19226;51.600;8.034;2022-08-01T04:56:19;20.30;99.90
32877;DHT22;19226;51.600;8.034;2022-08-01T04:58:46;20.20;99.90
32877;DHT22;19226;51.600;8.034;2022-08-01T05:01:15;20.10;99.90
32877;DHT22;19226;51.600;8.034;2022-08-01T05:03:41;20.10;99.90
32877;DHT22;19226;51.600;8.034;2022-08-01T05:06:11;20.10;99.90
32877;DHT22;19226;51.600;8.034;2022-08-01T05:08:37;20.00;99.90
32877;DHT22;19226;51.600;8.034;2022-08-01T05:11:03;20.00;99.90
32877;DHT22;19226;51.600;8.034;2022-08-01T05:13:29;20.00;99.90
32877;DHT22;19226;51.600;8.034;2022-08-01T05:15:58;20.10;99.90
32877;DHT22;19226;51.600;8.034;2022-08-01T05:18:27;20.10;99.90
32877;DHT22;19226;51.600;8.034;2022-08-01T05:20:53;20.20;99.90
32877;DHT22;19226;51.600;8.034;2022-08-01T05:23:19;20.20;99.90
32877;DHT22;19226;51.600;8.034;2022-08-01T05:25:44;20.20;99.90
32877;DHT22;19226;51.600;8.034;2022-08-01T05:28:10;20.20;99.90
32877;DHT22;19226;51.600;8.034;2022-08-01T05:30:39;20.20;99.90
32877;DHT22;19226;51.600;8.034;2022-08-01T05:33:05;20.20;99.90
32877;DHT22;19226;51.600;8.034;2022-08-01T05:35:37;20.20;99.90
32877;DHT22;19226;51.600;8.034;2022-08-01T05:38:03;20.20;99.90
32877;DHT22;19226;51.600;8.034;2022-08-01T05:40:30;20.30;99.90
32877;DHT22;19226;51.600;8.034;2022-08-01T05:42:56;20.40;99.90
32877;DHT22;19226;51.600;8.034;2022-08-01T05:45:23;20.40;99.90
32877;DHT22;19226;51.600;8.034;2022-08-01T05:47:55;20.40;99.90
32877;DHT22;19226;51.600;8.034;2022-08-01T05:50:22;20.40;99.90
32877;DHT22;19226;51.600;8.034;2022-08-01T05:53:07;20.50;99.90
32877;DHT22;19226;51.600;8.034;2022-08-01T05:55:34;20.50;99.90
32877;DHT22;19226;51.600;8.034;2022-08-01T05:58:02;20.50;99.90
32877;DHT22;19226;51.600;8.034;2022-08-01T06:00:29;20.50;99.90
32877;DHT22;19226;51.600;8.034;2022-08-01T06:02:55;20.50;99.90
32877;DHT22;19226;51.600;8.034;2022-08-01T06:05:21;20.50;99.90
32877;DHT22;19226;51.600;8.034;2022-08-01T06:07:48;20.50;99.90
32877;DHT22;19226;51.600;8.034;2022-08-01T06:10:14;20.60;99.90
32877;DHT22;19226;51.600;8.034;2022-08-01T06:12:40;20.60;99.90
32877;DHT22;19226;51.600;8.034;2022-08-01T06:15:07;20.50;99.90
32877;DHT22;19226;51.600;8.034;2022-08-01T06:17:34;20.60;99.90
32877;DHT22;19226;51.600;8.034;2022-08-01T06:20:00;20.70;99.90
32877;DHT22;19226;51.600;8.034;2022-08-01T06:22:26;20.80;99.90
32877;DHT22;19226;51.600;8.034;2022-08-01T06:24:52;20.70;99.90
32877;DHT22;19226;51.600;8.034;2022-08-01T06:27:19;20.70;99.90
32877;DHT22;19226;51.600;8.034;2022-08-01T06:29:48;20.80;99.90
32877;DHT22;19226;51.600;8.034;2022-08-01T06:32:14;20.80;99.90
32877;DHT22;19226;51.600;8.034;2022-08-01T06:34:40;20.90;99.90
32877;DHT22;19226;51.600;8.034;2022-08-01T06:37:08;20.90;99.90
32877;DHT22;19226;51.600;8.034;2022-08-01T06:39:34;21.00;99.90
32877;DHT22;19226;51.600;8.034;2022-08-01T06:42:01;21.00;99.90
32877;DHT22;19226;51.600;8.034;2022-08-01T06:44:27;21.00;99.90
32877;DHT22;19226;51.600;8.034;2022-08-01T06:46:54;21.00;99.90
32877;DHT22;19226;51.600;8.034;2022-08-01T06:49:20;21.10;99.90
32877;DHT22;19226;51.600;8.034;2022-08-01T06:51:46;21.10;99.90
32877;DHT22;19226;51.600;8.034;2022-08-01T06:54:12;21.10;99.90
32877;DHT22;19226;51.600;8.034;2022-08-01T06:56:38;21.10;99.90
32877;DHT22;19226;51.600;8.034;2022-08-01T06:59:04;21.10;99.90
32877;DHT22;19226;51.600;8.034;2022-08-01T07:01:30;21.00;99.90
32877;DHT22;19226;51.600;8.034;2022-08-01T07:03:56;21.00;99.90
32877;DHT22;19226;51.600;8.034;2022-08-01T07:06:23;21.10;99.90
32877;DHT22;19226;51.600;8.034;2022-08-01T07:08:50;21.30;99.90
32877;DHT22;19226;51.600;8.034;2022-08-01T07:11:16;21.40;99.90
32877;DHT22;19226;51.600;8.034;2022-08-01T07:13:42;21.50;99.90
32877;DHT22;19226;51.600;8.034;2022-08-01T07:16:09;21.50;99.90
32877;DHT22;19226;51.600;8.034;2022-08-01T07:18:35;21.60;99.90
32877;DHT22;19226;51.600;8.034;2022-08-01T07:21:02;21.70;99.90
32877;DHT22;19226;51.600;8.034;2022-08-01T07:23:28;21.70;99.90
32877;DHT22;19226;51.600;8.034;2022-08-01T07:25:54;21.70;99.90
32877;DHT22;19226;51.600;8.034;2022-08-01T07:28:20;21.70;99.90
32877;DHT22;19226;51.600;8.034;2022-08-01T07:30:54;21.80;99.90
32877;DHT22;19226;51.600;8.034;2022-08-01T07:33:20;21.80;99.90
32877;DHT22;19226;51.600;8.034;2022-08-01T07:35:47;21.80;99.90
32877;DHT22;19226;51.600;8.034;2022-08-01T07:38:13;21.90;99.90
32877;DHT22;19226;51.600;8.034;2022-08-01T07:40:43;22.10;99.90
32877;DHT22;19226;51.600;8.034;2022-08-01T07:43:09;22.10;99.90
32877;DHT22;19226;51.600;8.034;2022-08-01T07:45:36;22.10;99.90
32877;DHT22;19226;51.600;8.034;2022-08-01T07:48:06;22.10;99.90
32877;DHT22;19226;51.600;8.034;2022-08-01T07:50:51;22.10;99.90
32877;DHT22;19226;51.600;8.034;2022-08-01T07:53:18;22.20;99.90
32877;DHT22;19226;51.600;8.034;2022-08-01T07:55:44;22.30;99.90
32877;DHT22;19226;51.600;8.034;2022-08-01T07:58:10;22.40;99.90
32877;DHT22;19226;51.600;8.034;2022-08-01T08:00:36;22.50;99.90
32877;DHT22;19226;51.600;8.034;2022-08-01T08:03:03;22.60;99.90
32877;DHT22;19226;51.600;8.034;2022-08-01T08:05:29;22.60;99.90
32877;DHT22;19226;51.600;8.034;2022-08-01T08:07:56;22.50;99.90
32877;DHT22;19226;51.600;8.034;2022-08-01T08:10:22;22.60;99.90
32877;DHT22;19226;51.600;8.034;2022-08-01T08:12:49;22.70;99.90
32877;DHT22;19226;51.600;8.034;2022-08-01T08:15:15;22.80;99.90
32877;DHT22;19226;51.600;8.034;2022-08-01T08:17:42;22.90;99.90
32877;DHT22;19226;51.600;8.034;2022-08-01T08:20:08;22.90;99.90
32877;DHT22;19226;51.600;8.034;2022-08-01T08:22:35;23.00;99.90
32877;DHT22;19226;51.600;8.034;2022-08-01T08:25:01;23.00;99.90
32877;DHT22;19226;51.600;8.034;2022-08-01T08:27:28;23.10;99.90
32877;DHT22;19226;51.600;8.034;2022-08-01T08:30:13;23.10;99.90
32877;DHT22;19226;51.600;8.034;2022-08-01T08:32:40;23.10;99.90
32877;DHT22;19226;51.600;8.034;2022-08-01T08:35:06;23.10;99.90
32877;DHT22;19226;51.600;8.034;2022-08-01T08:37:35;23.10;99.90
32877;DHT22;19226;51.600;8.034;2022-08-01T08:40:05;23.20;99.90
32877;DHT22;19226;51.600;8.034;2022-08-01T08:42:32;23.40;99.90
32877;DHT22;19226;51.600;8.034;2022-08-01T08:44:58;23.40;99.90
32877;DHT22;19226;51.600;8.034;2022-08-01T08:47:25;23.40;99.90
32877;DHT22;19226;51.600;8.034;2022-08-01T08:49:55;23.60;99.90
32877;DHT22;19226;51.600;8.034;2022-08-01T08:52:22;23.60;99.90
32877;DHT22;19226;51.600;8.034;2022-08-01T08:54:50;23.70;99.90
32877;DHT22;19226;51.600;8.034;2022-08-01T08:57:19;23.70;99.90
32877;DHT22;19226;51.600;8.034;2022-08-01T08:59:46;23.80;99.90
32877;DHT22;19226;51.600;8.034;2022-08-01T09:02:12;23.90;99.90
32877;DHT22;19226;51.600;8.034;2022-08-01T09:04:39;24.10;99.90
32877;DHT22;19226;51.600;8.034;2022-08-01T09:07:06;24.20;99.90
32877;DHT22;19226;51.600;8.034;2022-08-01T09:09:56;24.30;99.90
32877;DHT22;19226;51.600;8.034;2022-08-01T09:12:22;24.30;99.90
32877;DHT22;19226;51.600;8.034;2022-08-01T09:14:51;24.20;99.90
32877;DHT22;19226;51.600;8.034;2022-08-01T09:17:20;24.10;99.90
32877;DHT22;19226;51.600;8.034;2022-08-01T09:19:52;24.00;99.90
32877;DHT22;19226;51.600;8.034;2022-08-01T09:22:20;24.00;99.90
32877;DHT22;19226;51.600;8.034;2022-08-01T09:25:06;24.00;99.90
32877;DHT22;19226;51.600;8.034;2022-08-01T09:27:33;24.00;99.90
32877;DHT22;19226;51.600;8.034;2022-08-01T09:30:18;24.00;99.90
32877;DHT22;19226;51.600;8.034;2022-08-01T09:33:02;24.00;99.90
32877;DHT22;19226;51.600;8.034;2022-08-01T09:35:31;24.00;99.90
32877;DHT22;19226;51.600;8.034;2022-08-01T09:40:53;24.20;99.90
32877;DHT22;19226;51.600;8.034;2022-08-01T09:43:22;24.20;99.90
32877;DHT22;19226;51.600;8.034;2022-08-01T09:45:48;24.20;99.90
32877;DHT22;19226;51.600;8.034;2022-08-01T09:48:14;24.20;99.90
32877;DHT22;19226;51.600;8.034;2022-08-01T09:50:44;24.20;99.90
32877;DHT22;19226;51.600;8.034;2022-08-01T09:53:11;24.10;99.90
32877;DHT22;19226;51.600;8.034;2022-08-01T09:55:39;24.10;99.90
32877;DHT22;19226;51.600;8.034;2022-08-01T09:58:06;24.10;99.90
32877;DHT22;19226;51.600;8.034;2022-08-01T10:00:34;24.10;99.90
32877;DHT22;19226;51.600;8.034;2022-08-01T10:03:27;24.20;99.90
32877;DHT22;19226;51.600;8.034;2022-08-01T10:05:55;24.30;99.90
32877;DHT22;19226;51.600;8.034;2022-08-01T10:08:23;24.40;99.90
32877;DHT22;19226;51.600;8.034;2022-08-01T10:11:13;24.50;99.90
32877;DHT22;19226;51.600;8.034;2022-08-01T10:13:39;24.60;99.90
32877;DHT22;19226;51.600;8.034;2022-08-01T10:16:06;24.80;99.90
32877;DHT22;19226;51.600;8.034;2022-08-01T10:18:36;24.90;99.90
32877;DHT22;19226;51.600;8.034;2022-08-01T10:21:04;25.10;99.90
32877;DHT22;19226;51.600;8.034;2022-08-01T10:23:34;25.20;99.90
32877;DHT22;19226;51.600;8.034;2022-08-01T10:26:05;25.40;99.90
32877;DHT22;19226;51.600;8.034;2022-08-01T10:28:35;25.20;99.90
32877;DHT22;19226;51.600;8.034;2022-08-01T10:31:02;25.40;99.90
32877;DHT22;19226;51.600;8.034;2022-08-01T10:33:29;25.60;99.90
32877;DHT22;19226;51.600;8.034;2022-08-01T10:35:57;25.80;99.90
32877;DHT22;19226;51.600;8.034;2022-08-01T10:38:23;25.90;99.90
32877;DHT22;19226;51.600;8.034;2022-08-01T10:40:50;25.90;99.90
32877;DHT22;19226;51.600;8.034;2022-08-01T10:43:20;25.90;99.90
32877;DHT22;19226;51.600;8.034;2022-08-01T10:45:46;25.90;99.90
32877;DHT22;19226;51.600;8.034;2022-08-01T10:48:20;25.80;99.90
32877;DHT22;19226;51.600;8.034;2022-08-01T10:50:55;25.90;99.90
32877;DHT22;19226;51.600;8.034;2022-08-01T10:53:25;25.90;99.90
32877;DHT22;19226;51.600;8.034;2022-08-01T10:56:00;25.90;99.90
32877;DHT22;19226;51.600;8.034;2022-08-01T10:58:28;26.00;99.90
32877;DHT22;19226;51.600;8.034;2022-08-01T11:03:57;26.00;99.90
32877;DHT22;19226;51.600;8.034;2022-08-01T11:09:05;26.10;99.90
32877;DHT22;19226;51.600;8.034;2022-08-01T11:12:06;26.20;99.90
32877;DHT22;19226;51.600;8.034;2022-08-01T11:17:45;26.50;99.90
32877;DHT22;19226;51.600;8.034;2022-08-01T11:20:16;26.50;99.90
32877;DHT22;19226;51.600;8.034;2022-08-01T11:30:45;26.00;99.90
32877;DHT22;19226;51.600;8.034;2022-08-01T11:33:13;26.00;99.90
32877;DHT22;19226;51.600;8.034;2022-08-01T11:41:31;26.20;99.90
32877;DHT22;19226;51.600;8.034;2022-08-01T11:44:19;26.30;99.90
32877;DHT22;19226;51.600;8.034;2022-08-01T11:47:07;26.50;99.90
32877;DHT22;19226;51.600;8.034;2022-08-01T11:49:49;26.80;99.90
32877;DHT22;19226;51.600;8.034;2022-08-01T11:52:26;27.00;99.90
32877;DHT22;19226;51.600;8.034;2022-08-01T11:57:29;27.10;99.90
32877;DHT22;19226;51.600;8.034;2022-08-01T12:00:17;27.10;99.90
32877;DHT22;19226;51.600;8.034;2022-08-01T12:02:45;27.10;99.90
32877;DHT22;19226;51.600;8.034;2022-08-01T12:05:14;27.10;99.90
32877;DHT22;19226;51.600;8.034;2022-08-01T12:07:43;27.20;99.90
32877;DHT22;19226;51.600;8.034;2022-08-01T12:10:18;27.30;99.90
32877;DHT22;19226;51.600;8.034;2022-08-01T12:12:48;27.40;99.90
32877;DHT22;19226;51.600;8.034;2022-08-01T12:15:17;27.50;99.90
32877;DHT22;19226;51.600;8.034;2022-08-01T12:17:47;27.50;99.90
32877;DHT22;19226;51.600;8.034;2022-08-01T12:20:16;27.60;99.90
32877;DHT22;19226;51.600;8.034;2022-08-01T12:22:45;27.70;99.90
32877;DHT22;19226;51.600;8.034;2022-08-01T12:25:13;27.80;99.90
32877;DHT22;19226;51.600;8.034;2022-08-01T12:27:41;27.80;99.90
32877;DHT22;19226;51.600;8.034;2022-08-01T12:30:09;27.90;99.90
32877;DHT22;19226;51.600;8.034;2022-08-01T12:32:58;28.00;99.90
32877;DHT22;19226;51.600;8.034;2022-08-01T12:35:28;28.10;99.90
32877;DHT22;19226;51.600;8.034;2022-08-01T12:37:59;28.10;99.90
32877;DHT22;19226;51.600;8.034;2022-08-01T12:40:27;28.20;99.90
32877;DHT22;19226;51.600;8.034;2022-08-01T12:42:59;28.20;99.90
32877;DHT22;19226;51.600;8.034;2022-08-01T12:45:35;28.20;99.90
32877;DHT22;19226;51.600;8.034;2022-08-01T12:48:08;28.20;99.90
32877;DHT22;19226;51.600;8.034;2022-08-01T12:50:38;28.10;99.90
32877;DHT22;19226;51.600;8.034;2022-08-01T12:53:05;28.10;99.90
32877;DHT22;19226;51.600;8.034;2022-08-01T12:55:32;28.10;99.90
32877;DHT22;19226;51.600;8.034;2022-08-01T12:58:05;28.10;99.90
32877;DHT22;19226;51.600;8.034;2022-08-01T13:00:34;28.20;99.90
32877;DHT22;19226;51.600;8.034;2022-08-01T13:03:06;28.20;99.90
32877;DHT22;19226;51.600;8.034;2022-08-01T13:06:01;28.30;99.90
32877;DHT22;19226;51.600;8.034;2022-08-01T13:08:35;28.20;99.90
32877;DHT22;19226;51.600;8.034;2022-08-01T13:11:06;28.20;99.90
32877;DHT22;19226;51.600;8.034;2022-08-01T13:13:43;28.20;99.90
32877;DHT22;19226;51.600;8.034;2022-08-01T13:16:11;28.20;99.90
32877;DHT22;19226;51.600;8.034;2022-08-01T13:18:37;28.30;99.90
32877;DHT22;19226;51.600;8.034;2022-08-01T13:23:39;28.10;99.90
32877;DHT22;19226;51.600;8.034;2022-08-01T13:26:09;28.10;99.90
32877;DHT22;19226;51.600;8.034;2022-08-01T13:28:35;28.10;99.90
32877;DHT22;19226;51.600;8.034;2022-08-01T13:31:23;28.10;99.90
32877;DHT22;19226;51.600;8.034;2022-08-01T13:33:59;28.20;99.90
32877;DHT22;19226;51.600;8.034;2022-08-01T13:36:25;28.30;99.90
32877;DHT22;19226;51.600;8.034;2022-08-01T13:38:54;28.30;99.90
32877;DHT22;19226;51.600;8.034;2022-08-01T13:41:39;28.30;99.90
32877;DHT22;19226;51.600;8.034;2022-08-01T13:44:06;28.30;99.90
32877;DHT22;19226;51.600;8.034;2022-08-01T13:46:35;28.30;99.90
32877;DHT22;19226;51.600;8.034;2022-08-01T13:49:05;28.20;99.90
32877;DHT22;19226;51.600;8.034;2022-08-01T13:51:33;28.30;99.90
32877;DHT22;19226;51.600;8.034;2022-08-01T13:53:59;28.30;99.90
32877;DHT22;19226;51.600;8.034;2022-08-01T13:56:26;28.20;99.90
32877;DHT22;19226;51.600;8.034;2022-08-01T13:58:56;28.10;99.90
32877;DHT22;19226;51.600;8.034;2022-08-01T14:01:23;28.10;99.90
32877;DHT22;19226;51.600;8.034;2022-08-01T14:03:51;28.10;99.90
32877;DHT22;19226;51.600;8.034;2022-08-01T14:06:18;27.90;99.90
32877;DHT22;19226;51.600;8.034;2022-08-01T14:08:48;27.90;99.90
32877;DHT22;19226;51.600;8.034;2022-08-01T14:11:16;28.10;99.90
32877;DHT22;19226;51.600;8.034;2022-08-01T14:13:43;28.10;99.90
32877;DHT22;19226;51.600;8.034;2022-08-01T14:16:09;28.20;99.90
32877;DHT22;19226;51.600;8.034;2022-08-01T14:18:35;28.10;99.90
32877;DHT22;19226;51.600;8.034;2022-08-01T14:21:01;28.20;99.90
32877;DHT22;19226;51.600;8.034;2022-08-01T14:23:31;28.10;99.90
32877;DHT22;19226;51.600;8.034;2022-08-01T14:25:57;28.10;99.90
32877;DHT22;19226;51.600;8.034;2022-08-01T14:28:24;28.20;99.90
32877;DHT22;19226;51.600;8.034;2022-08-01T14:30:54;28.30;99.90
32877;DHT22;19226;51.600;8.034;2022-08-01T14:33:21;28.30;99.90
32877;DHT22;19226;51.600;8.034;2022-08-01T14:35:47;28.20;99.90
32877;DHT22;19226;51.600;8.034;2022-08-01T14:38:13;28.20;99.90
32877;DHT22;19226;51.600;8.034;2022-08-01T14:40:40;28.20;99.90
32877;DHT22;19226;51.600;8.034;2022-08-01T14:43:09;28.20;99.90
32877;DHT22;19226;51.600;8.034;2022-08-01T14:45:35;28.20;99.90
32877;DHT22;19226;51.600;8.034;2022-08-01T14:48:02;28.20;99.90
32877;DHT22;19226;51.600;8.034;2022-08-01T14:50:28;28.20;99.90
32877;DHT22;19226;51.600;8.034;2022-08-01T14:52:54;28.20;99.90
32877;DHT22;19226;51.600;8.034;2022-08-01T14:55:23;28.30;99.90
32877;DHT22;19226;51.600;8.034;2022-08-01T14:57:52;27.90;99.90
32877;DHT22;19226;51.600;8.034;2022-08-01T15:00:18;28.00;99.90
32877;DHT22;19226;51.600;8.034;2022-08-01T15:02:45;28.10;99.90
32877;DHT22;19226;51.600;8.034;2022-08-01T15:05:11;28.10;99.90
32877;DHT22;19226;51.600;8.034;2022-08-01T15:07:38;28.10;99.90
32877;DHT22;19226;51.600;8.034;2022-08-01T15:10:05;28.10;99.90
32877;DHT22;19226;51.600;8.034;2022-08-01T15:12:31;28.30;99.90
32877;DHT22;19226;51.600;8.034;2022-08-01T15:14:58;28.40;99.90
32877;DHT22;19226;51.600;8.034;2022-08-01T15:17:26;28.60;99.90
32877;DHT22;19226;51.600;8.034;2022-08-01T15:19:56;28.80;99.90
32877;DHT22;19226;51.600;8.034;2022-08-01T15:22:25;29.00;99.90
32877;DHT22;19226;51.600;8.034;2022-08-01T15:24:53;29.00;99.90
32877;DHT22;19226;51.600;8.034;2022-08-01T15:27:19;29.00;99.90
32877;DHT22;19226;51.600;8.034;2022-08-01T15:29:47;29.00;99.90
32877;DHT22;19226;51.600;8.034;2022-08-01T15:32:13;29.00;99.90
32877;DHT22;19226;51.600;8.034;2022-08-01T15:34:40;29.00;99.90
32877;DHT22;19226;51.600;8.034;2022-08-01T15:37:07;29.10;99.90
32877;DHT22;19226;51.600;8.034;2022-08-01T15:39:34;29.30;99.90
32877;DHT22;19226;51.600;8.034;2022-08-01T15:42:05;29.40;99.90
32877;DHT22;19226;51.600;8.034;2022-08-01T15:44:33;29.60;99.90
32877;DHT22;19226;51.600;8.034;2022-08-01T15:47:00;29.20;99.90
32877;DHT22;19226;51.600;8.034;2022-08-01T15:49:27;29.10;99.90
32877;DHT22;19226;51.600;8.034;2022-08-01T15:51:53;29.00;99.90
32877;DHT22;19226;51.600;8.034;2022-08-01T15:54:19;28.70;99.90
32877;DHT22;19226;51.600;8.034;2022-08-01T15:56:48;28.50;99.90
32877;DHT22;19226;51.600;8.034;2022-08-01T15:59:14;28.60;99.90
32877;DHT22;19226;51.600;8.034;2022-08-01T16:01:40;28.70;99.90
32877;DHT22;19226;51.600;8.034;2022-08-01T16:04:07;28.70;99.90
32877;DHT22;19226;51.600;8.034;2022-08-01T16:06:35;29.10;99.90
32877;DHT22;19226;51.600;8.034;2022-08-01T16:09:03;29.40;99.90
32877;DHT22;19226;51.600;8.034;2022-08-01T16:11:30;29.50;99.90
32877;DHT22;19226;51.600;8.034;2022-08-01T16:13:57;29.40;99.90
32877;DHT22;19226;51.600;8.034;2022-08-01T16:16:24;29.40;99.90
32877;DHT22;19226;51.600;8.034;2022-08-01T16:19:09;29.30;99.90
32877;DHT22;19226;51.600;8.034;2022-08-01T16:21:35;29.20;99.90
32877;DHT22;19226;51.600;8.034;2022-08-01T16:24:03;29.10;99.90
32877;DHT22;19226;51.600;8.034;2022-08-01T16:26:30;29.00;99.90